createdAt,value
2023-05-06T00:01:03.608Z,3.85
2023-05-06T00:03:06.982Z,3.30
2023-05-06T00:05:11.022Z,4.28
2023-05-06T00:07:14.597Z,2.55
2023-05-06T00:09:17.994Z,3.83
2023-05-06T00:11:22.974Z,2.45
2023-05-06T00:15:30.880Z,3.05
2023-05-06T00:17:35.581Z,3.08
2023-05-06T00:19:39.173Z,3.80
2023-05-06T00:21:42.737Z,3.30
2023-05-06T00:23:46.052Z,3.50
2023-05-06T00:25:49.344Z,3.72
2023-05-06T00:27:54.586Z,3.33
2023-05-06T00:29:59.032Z,3.95
2023-05-06T00:32:02.409Z,3.58
2023-05-06T00:34:05.775Z,3.13
2023-05-06T00:36:09.729Z,3.25
2023-05-06T00:38:15.340Z,3.17
2023-05-06T00:40:19.174Z,3.60
2023-05-06T00:42:23.748Z,4.28
2023-05-06T00:44:28.489Z,3.70
2023-05-06T00:46:31.866Z,3.53
2023-05-06T00:48:35.675Z,3.25
2023-05-06T00:50:41.559Z,3.20
2023-05-06T00:52:45.259Z,3.38
2023-05-06T00:54:48.673Z,4.28
2023-05-06T00:56:52.034Z,3.15
2023-05-06T00:58:56.032Z,2.58
2023-05-06T01:01:02.035Z,3.17
2023-05-06T01:03:05.938Z,3.28
2023-05-06T01:05:10.956Z,3.10
2023-05-06T01:07:28.005Z,2.45
2023-05-06T01:09:39.739Z,2.72
2023-05-06T01:11:47.452Z,2.78
2023-05-06T01:13:58.258Z,3.38
2023-05-06T01:18:12.142Z,2.67
2023-05-06T01:20:16.515Z,3.00
2023-05-06T01:22:20.789Z,2.63
2023-05-06T01:24:36.670Z,2.67
2023-05-06T01:26:42.708Z,2.35
2023-05-06T01:28:46.405Z,2.20
2023-05-06T01:30:56.927Z,2.30
2023-05-06T01:33:08.050Z,2.58
2023-05-06T01:35:19.926Z,2.63
2023-05-06T01:37:29.432Z,2.90
2023-05-06T01:39:35.651Z,3.00
2023-05-06T01:41:41.764Z,2.08
2023-05-06T01:43:50.431Z,2.13
2023-05-06T01:45:56.418Z,2.42
2023-05-06T01:48:00.640Z,2.92
2023-05-06T01:50:05.976Z,3.28
2023-05-06T01:52:10.436Z,2.40
2023-05-06T01:54:14.312Z,2.95
2023-05-06T01:56:19.167Z,3.00
2023-05-06T01:58:22.807Z,2.85
2023-05-06T02:00:26.947Z,1.70
2023-05-06T02:02:30.587Z,2.28
2023-05-06T02:04:33.999Z,2.42
2023-05-06T02:06:37.531Z,1.95
2023-05-06T02:08:41.989Z,2.38
2023-05-06T02:10:49.299Z,2.35
2023-05-06T02:12:56.259Z,2.22
2023-05-06T02:17:05.234Z,2.47
2023-05-06T02:19:08.958Z,2.35
2023-05-06T02:21:12.547Z,2.55
2023-05-06T02:23:15.999Z,1.90
2023-05-06T02:25:19.756Z,2.33
2023-05-06T02:27:23.410Z,2.17
2023-05-06T02:29:28.402Z,2.72
2023-05-06T02:31:33.231Z,2.28
2023-05-06T02:33:36.854Z,1.90
2023-05-06T02:35:41.177Z,2.28
2023-05-06T02:37:45.701Z,2.40
2023-05-06T02:39:49.393Z,2.53
2023-05-06T02:41:53.175Z,3.25
2023-05-06T02:43:56.735Z,2.40
2023-05-06T02:46:02.093Z,3.05
2023-05-06T02:48:06.419Z,2.97
2023-05-06T02:50:10.353Z,2.88
2023-05-06T02:52:14.044Z,2.42
2023-05-06T02:54:17.641Z,2.58
2023-05-06T02:56:21.251Z,2.25
2023-05-06T02:58:26.421Z,2.80
2023-05-06T03:00:30.040Z,2.63
2023-05-06T03:02:35.247Z,1.55
2023-05-06T03:04:38.879Z,2.47
2023-05-06T03:06:42.540Z,1.80
2023-05-06T03:08:46.219Z,2.25
2023-05-06T03:10:50.515Z,2.17
2023-05-06T03:12:56.289Z,2.75
2023-05-06T03:14:59.871Z,2.33
2023-05-06T03:17:03.853Z,2.70
2023-05-06T03:19:11.705Z,2.22
2023-05-06T03:21:15.986Z,2.70
2023-05-06T03:23:22.069Z,2.88
2023-05-06T03:25:26.198Z,2.25
2023-05-06T03:27:30.511Z,2.28
2023-05-06T03:29:39.414Z,2.40
2023-05-06T03:31:44.863Z,2.38
2023-05-06T03:33:49.861Z,2.72
2023-05-06T03:35:55.527Z,3.40
2023-05-06T03:37:59.272Z,2.88
2023-05-06T03:40:10.487Z,2.35
2023-05-06T03:42:14.499Z,2.03
2023-05-06T03:44:18.317Z,2.72
2023-05-06T03:46:22.091Z,2.10
2023-05-06T03:48:26.098Z,2.03
2023-05-06T03:50:31.228Z,2.67
2023-05-06T03:52:36.360Z,2.15
2023-05-06T03:54:40.886Z,2.92
2023-05-06T03:56:44.822Z,2.20
2023-05-06T03:58:49.124Z,2.47
2023-05-06T04:00:53.719Z,2.58
2023-05-06T04:02:57.311Z,3.15
2023-05-06T04:05:18.183Z,2.38
2023-05-06T04:07:22.608Z,2.22
2023-05-06T04:11:32.680Z,2.40
2023-05-06T04:13:38.523Z,2.28
2023-05-06T04:15:49.782Z,2.30
2023-05-06T04:17:58.382Z,2.40
2023-05-06T04:20:07.344Z,2.33
2023-05-06T04:22:11.528Z,2.63
2023-05-06T04:24:16.234Z,2.97
2023-05-06T04:26:21.283Z,2.10
2023-05-06T04:28:25.378Z,1.80
2023-05-06T04:30:31.035Z,2.67
2023-05-06T04:32:35.283Z,1.95
2023-05-06T04:34:40.706Z,2.17
2023-05-06T04:36:49.706Z,2.25
2023-05-06T04:39:06.844Z,2.10
2023-05-06T04:41:12.242Z,2.67
2023-05-06T04:43:17.900Z,2.38
2023-05-06T04:45:24.653Z,2.70
2023-05-06T04:47:29.297Z,2.38
2023-05-06T04:49:33.220Z,2.53
2023-05-06T04:51:38.388Z,2.10
2023-05-06T04:53:42.653Z,2.13
2023-05-06T04:55:46.560Z,2.28
2023-05-06T04:57:50.547Z,2.90
2023-05-06T04:59:55.606Z,2.15
2023-05-06T05:01:59.270Z,2.75
2023-05-06T05:04:03.002Z,2.40
2023-05-06T05:06:07.517Z,2.65
2023-05-06T05:08:13.493Z,2.60
2023-05-06T05:10:17.665Z,2.40
2023-05-06T05:12:21.486Z,2.53
2023-05-06T05:14:27.624Z,2.03
2023-05-06T05:16:33.029Z,2.17
2023-05-06T05:18:38.674Z,2.22
2023-05-06T05:20:49.486Z,2.60
2023-05-06T05:22:54.421Z,2.17
2023-05-06T05:24:58.318Z,2.08
2023-05-06T05:27:02.483Z,2.63
2023-05-06T05:29:06.759Z,2.30
2023-05-06T05:31:10.801Z,2.03
2023-05-06T05:35:22.476Z,2.22
2023-05-06T05:37:28.559Z,2.45
2023-05-06T05:39:32.231Z,2.35
2023-05-06T05:41:36.680Z,2.40
2023-05-06T05:43:40.383Z,2.40
2023-05-06T05:45:44.452Z,3.00
2023-05-06T05:47:48.765Z,2.65
2023-05-06T05:49:54.789Z,2.58
2023-05-06T05:51:59.947Z,2.67
2023-05-06T05:54:05.432Z,2.00
2023-05-06T05:56:09.962Z,2.65
2023-05-06T05:58:14.183Z,2.22
2023-05-06T06:00:21.572Z,2.38
2023-05-06T06:02:29.293Z,2.63
2023-05-06T06:04:33.986Z,2.00
2023-05-06T06:06:39.205Z,2.60
2023-05-06T06:08:42.858Z,2.70
2023-05-06T06:10:47.571Z,2.58
2023-05-06T06:12:56.370Z,2.33
2023-05-06T06:15:03.903Z,1.58
2023-05-06T06:17:08.034Z,3.13
2023-05-06T06:19:11.772Z,2.38
2023-05-06T06:21:15.881Z,2.60
2023-05-06T06:23:21.107Z,2.92
2023-05-06T06:25:24.953Z,2.05
2023-05-06T06:27:28.685Z,1.80
2023-05-06T06:29:32.467Z,2.85
2023-05-06T06:31:38.356Z,2.17
2023-05-06T06:33:43.441Z,2.25
2023-05-06T06:35:47.598Z,2.67
2023-05-06T06:37:51.266Z,1.88
2023-05-06T06:39:56.315Z,2.75
2023-05-06T06:42:00.207Z,2.20
2023-05-06T06:44:11.982Z,2.35
2023-05-06T06:46:15.349Z,2.22
2023-05-06T06:48:18.764Z,2.60
2023-05-06T06:50:22.498Z,1.75
2023-05-06T06:52:25.915Z,3.30
2023-05-06T06:54:29.357Z,2.58
2023-05-06T06:56:34.122Z,2.60
2023-05-06T06:58:37.575Z,3.00
2023-05-06T07:00:40.910Z,3.13
2023-05-06T07:02:44.514Z,2.72
2023-05-06T07:04:47.949Z,2.47
2023-05-06T07:06:51.360Z,2.55
2023-05-06T07:08:54.752Z,2.80
2023-05-06T07:10:58.083Z,2.80
2023-05-06T07:13:03.135Z,2.95
2023-05-06T07:15:08.222Z,2.50
2023-05-06T07:17:11.928Z,2.85
2023-05-06T07:19:15.555Z,2.00
2023-05-06T07:21:19.052Z,2.72
2023-05-06T07:23:22.636Z,2.70
2023-05-06T07:25:27.572Z,3.15
2023-05-06T07:27:31.893Z,2.58
2023-05-06T07:29:37.556Z,2.72
2023-05-06T07:31:41.050Z,3.17
2023-05-06T07:33:44.442Z,3.85
2023-05-06T07:35:47.805Z,2.15
2023-05-06T07:37:51.687Z,2.90
2023-05-06T07:39:55.221Z,2.17
2023-05-06T07:41:58.631Z,3.08
2023-05-06T07:44:02.183Z,2.15
2023-05-06T07:46:07.506Z,2.50
2023-05-06T07:48:11.070Z,2.60
2023-05-06T07:50:14.452Z,2.45
2023-05-06T07:52:17.835Z,2.40
2023-05-06T07:54:21.157Z,2.30
2023-05-06T07:56:24.672Z,2.28
2023-05-06T07:58:28.345Z,2.88
2023-05-06T08:00:32.136Z,3.10
2023-05-06T08:02:38.741Z,2.35
2023-05-06T08:04:42.958Z,2.15
2023-05-06T08:06:46.553Z,2.40
2023-05-06T08:08:49.871Z,2.22
2023-05-06T08:10:53.247Z,2.20
2023-05-06T08:12:56.703Z,2.83
2023-05-06T08:15:00.185Z,2.03
2023-05-06T08:17:03.667Z,2.17
2023-05-06T08:19:08.753Z,1.80
2023-05-06T08:23:15.378Z,2.33
2023-05-06T08:25:19.600Z,2.00
2023-05-06T08:27:23.293Z,2.20
2023-05-06T08:29:26.625Z,2.15
2023-05-06T08:31:30.380Z,2.95
2023-05-06T08:33:33.967Z,1.90
2023-05-06T08:35:38.720Z,2.00
2023-05-06T08:39:45.736Z,2.10
2023-05-06T08:41:51.651Z,3.05
2023-05-06T08:43:56.353Z,2.28
2023-05-06T08:45:59.968Z,2.70
2023-05-06T08:48:03.762Z,2.22
2023-05-06T08:50:08.304Z,2.30
2023-05-06T08:52:13.461Z,2.40
2023-05-06T08:54:17.258Z,1.77
2023-05-06T08:56:23.422Z,2.22
2023-05-06T08:58:28.319Z,1.65
2023-05-06T09:02:34.892Z,2.25
2023-05-06T09:04:38.673Z,2.90
2023-05-06T09:06:42.057Z,2.22
2023-05-06T09:08:46.845Z,2.38
2023-05-06T09:10:50.307Z,2.10
2023-05-06T09:12:56.306Z,2.42
2023-05-06T09:14:59.672Z,1.67
2023-05-06T09:17:03.403Z,2.17
2023-05-06T09:19:07.099Z,1.73
2023-05-06T09:21:10.480Z,1.75
2023-05-06T09:23:15.810Z,2.40
2023-05-06T09:25:20.648Z,2.35
2023-05-06T09:27:24.955Z,2.30
2023-05-06T09:29:28.837Z,1.95
2023-05-06T09:31:33.252Z,2.10
2023-05-06T09:33:37.857Z,2.00
2023-05-06T09:35:43.412Z,1.98
2023-05-06T09:37:47.096Z,1.70
2023-05-06T09:39:51.528Z,2.22
2023-05-06T09:41:56.920Z,1.92
2023-05-06T09:44:01.016Z,2.42
2023-05-06T09:46:06.389Z,2.28
2023-05-06T09:48:10.525Z,1.92
2023-05-06T09:50:15.732Z,2.40
2023-05-06T09:52:21.025Z,2.33
2023-05-06T09:54:26.688Z,1.80
2023-05-06T09:56:32.432Z,2.20
2023-05-06T09:58:37.774Z,2.00
2023-05-06T10:00:42.609Z,1.77
2023-05-06T10:04:52.421Z,2.30
2023-05-06T10:06:58.097Z,1.95
2023-05-06T10:09:02.595Z,2.05
2023-05-06T10:11:07.792Z,2.38
2023-05-06T10:13:12.178Z,1.55
2023-05-06T10:15:17.550Z,2.13
2023-05-06T10:17:25.654Z,1.70
2023-05-06T10:19:30.030Z,1.52
2023-05-06T10:21:37.431Z,2.00
2023-05-06T10:23:45.842Z,2.08
2023-05-06T10:25:52.955Z,1.80
2023-05-06T10:27:57.072Z,1.70
2023-05-06T10:30:02.114Z,2.10
2023-05-06T10:32:11.104Z,1.50
2023-05-06T10:34:14.886Z,1.58
2023-05-06T10:36:21.650Z,1.80
2023-05-06T10:38:31.314Z,1.65
2023-05-06T10:40:35.199Z,1.70
2023-05-06T10:42:38.985Z,1.58
2023-05-06T10:44:58.829Z,2.08
2023-05-06T10:47:02.893Z,1.35
2023-05-06T10:49:20.574Z,1.55
2023-05-06T10:51:29.645Z,1.50
2023-05-06T10:54:02.760Z,1.50
2023-05-06T10:56:10.553Z,1.60
2023-05-06T10:58:16.140Z,1.83
2023-05-06T11:00:20.712Z,1.70
2023-05-06T11:02:25.501Z,1.55
2023-05-06T11:04:31.805Z,1.67
2023-05-06T11:06:37.410Z,2.42
2023-05-06T11:08:41.464Z,1.90
2023-05-06T11:10:45.322Z,1.80
2023-05-06T11:12:50.549Z,1.75
2023-05-06T11:14:55.209Z,1.88
2023-05-06T11:17:01.800Z,2.45
2023-05-06T11:19:05.978Z,1.80
2023-05-06T11:21:42.361Z,2.53
2023-05-06T11:24:14.260Z,2.60
2023-05-06T11:26:17.960Z,1.88
2023-05-06T11:28:22.630Z,2.67
2023-05-06T11:30:26.662Z,2.40
2023-05-06T11:32:31.283Z,2.38
2023-05-06T11:34:35.594Z,2.55
2023-05-06T11:36:48.180Z,2.63
2023-05-06T11:38:53.223Z,2.50
2023-05-06T11:40:56.975Z,2.08
2023-05-06T11:43:12.296Z,2.30
2023-05-06T11:45:17.074Z,2.35
2023-05-06T11:47:23.885Z,2.28
2023-05-06T11:49:28.534Z,2.22
2023-05-06T11:51:32.795Z,2.00
2023-05-06T11:53:38.776Z,2.03
2023-05-06T11:55:42.371Z,2.33
2023-05-06T11:57:47.189Z,2.35
2023-05-06T11:59:55.737Z,2.63
2023-05-06T12:02:01.124Z,2.15
2023-05-06T12:04:04.922Z,1.52
2023-05-06T12:06:09.923Z,1.75
2023-05-06T12:10:31.441Z,2.42
2023-05-06T12:12:35.301Z,2.15
2023-05-06T12:14:39.848Z,2.10
2023-05-06T12:16:46.975Z,1.95
2023-05-06T12:18:50.960Z,1.60
2023-05-06T12:20:55.868Z,1.77
2023-05-06T12:25:16.058Z,2.20
2023-05-06T12:27:35.070Z,2.00
2023-05-06T12:29:38.785Z,2.40
2023-05-06T12:31:43.343Z,1.85
2023-05-06T12:33:49.186Z,2.00
2023-05-06T12:35:54.873Z,1.60
2023-05-06T12:37:59.589Z,2.70
2023-05-06T12:40:04.133Z,1.70
2023-05-06T12:42:08.339Z,1.45
2023-05-06T12:44:39.034Z,1.98
2023-05-06T12:46:52.892Z,2.00
2023-05-06T12:49:00.882Z,2.33
2023-05-06T12:51:19.436Z,2.55
2023-05-06T12:53:33.511Z,2.78
2023-05-06T12:55:38.035Z,2.53
2023-05-06T12:57:41.790Z,2.65
2023-05-06T12:59:47.634Z,3.13
2023-05-06T13:01:51.561Z,2.60
2023-05-06T13:03:56.810Z,2.40
2023-05-06T13:06:00.395Z,2.70
2023-05-06T13:08:04.696Z,2.20
2023-05-06T13:10:09.505Z,2.60
2023-05-06T13:12:13.525Z,2.38
2023-05-06T13:14:17.739Z,1.98
2023-05-06T13:16:22.949Z,2.67
2023-05-06T13:18:26.810Z,2.30
2023-05-06T13:20:30.698Z,2.88
2023-05-06T13:22:50.673Z,2.85
2023-05-06T13:24:57.293Z,2.78
2023-05-06T13:27:01.262Z,2.38
2023-05-06T13:29:05.306Z,2.63
2023-05-06T13:31:09.599Z,2.55
2023-05-06T13:33:17.063Z,3.08
2023-05-06T13:35:20.657Z,2.83
2023-05-06T13:37:24.356Z,2.70
2023-05-06T13:39:27.967Z,2.95
2023-05-06T13:41:32.076Z,3.13
2023-05-06T13:43:35.671Z,3.20
2023-05-06T13:45:39.416Z,3.70
2023-05-06T13:47:44.422Z,3.38
2023-05-06T13:49:49.588Z,3.25
2023-05-06T13:51:53.735Z,3.83
2023-05-06T13:53:57.448Z,3.80
2023-05-06T13:56:01.219Z,4.43
2023-05-06T13:58:05.677Z,3.33
2023-05-06T14:00:11.173Z,3.80
2023-05-06T14:02:14.887Z,3.47
2023-05-06T14:04:18.558Z,4.03
2023-05-06T14:06:23.772Z,3.17
2023-05-06T14:08:27.353Z,3.67
2023-05-06T14:10:31.011Z,3.75
2023-05-06T14:12:34.978Z,3.50
2023-05-06T14:14:38.624Z,4.22
2023-05-06T14:16:42.458Z,3.50
2023-05-06T14:18:46.237Z,3.95
2023-05-06T14:20:49.911Z,4.25
2023-05-06T14:22:54.977Z,3.15
2023-05-06T14:24:58.566Z,3.60
2023-05-06T14:27:02.058Z,3.80
2023-05-06T14:29:05.705Z,4.15
2023-05-06T14:31:09.567Z,3.85
2023-05-06T14:33:13.585Z,3.95
2023-05-06T14:35:17.334Z,3.45
2023-05-06T14:37:21.006Z,3.95
2023-05-06T14:39:26.214Z,2.70
2023-05-06T14:41:29.772Z,3.28
2023-05-06T14:43:33.343Z,3.50
2023-05-06T14:45:36.994Z,3.08
2023-05-06T14:47:41.480Z,3.40
2023-05-06T14:49:45.365Z,2.72
2023-05-06T14:51:50.117Z,2.83
2023-05-06T14:53:53.808Z,3.38
2023-05-06T14:55:58.711Z,3.45
2023-05-06T14:58:02.282Z,3.50
2023-05-06T15:00:10.190Z,4.43
2023-05-06T15:02:14.121Z,3.63
2023-05-06T15:04:17.916Z,3.40
2023-05-06T15:06:21.525Z,3.13
2023-05-06T15:08:25.345Z,4.18
2023-05-06T15:10:28.959Z,3.22
2023-05-06T15:12:34.685Z,3.88
2023-05-06T15:14:38.277Z,3.15
2023-05-06T15:16:41.979Z,2.90
2023-05-06T15:18:45.793Z,3.47
2023-05-06T15:20:49.293Z,4.32
2023-05-06T15:22:52.842Z,4.63
2023-05-06T15:24:57.074Z,3.70
2023-05-06T15:27:00.964Z,8.82
2023-05-06T15:29:07.527Z,14.23
2023-05-06T15:31:11.404Z,4.38
2023-05-06T15:33:15.355Z,19.70
2023-05-06T15:35:19.105Z,4.25
2023-05-06T15:37:22.655Z,9.63
2023-05-06T15:39:26.610Z,4.00
2023-05-06T15:41:32.512Z,9.95
2023-05-06T15:43:38.120Z,3.63
2023-05-06T15:45:44.326Z,3.55
2023-05-06T15:47:48.877Z,3.42
2023-05-06T15:49:54.791Z,3.10
2023-05-06T15:52:01.092Z,3.28
2023-05-06T15:54:05.323Z,3.08
2023-05-06T15:56:18.191Z,3.03
2023-05-06T15:58:22.702Z,6.07
2023-05-06T16:00:27.976Z,30.08
2023-05-06T16:02:34.161Z,14.23
2023-05-06T16:04:38.055Z,33.08
2023-05-06T16:06:41.788Z,61.15
2023-05-06T16:08:45.385Z,74.30
2023-05-06T16:10:48.891Z,30.85
2023-05-06T16:12:52.507Z,57.33
2023-05-06T16:14:56.374Z,24.85
2023-05-06T16:16:59.984Z,24.27
2023-05-06T16:19:05.386Z,54.20
2023-05-06T16:21:09.064Z,29.95
2023-05-06T16:23:13.747Z,69.68
2023-05-06T16:25:17.663Z,24.75
2023-05-06T16:27:22.990Z,25.77
2023-05-06T16:29:26.792Z,12.27
2023-05-06T16:31:30.770Z,38.47
2023-05-06T16:33:34.504Z,14.02
2023-05-06T16:35:39.640Z,32.05
2023-05-06T16:37:44.730Z,34.70
2023-05-06T16:39:48.443Z,5.75
2023-05-06T16:41:57.880Z,3.70
2023-05-06T16:44:01.871Z,4.53
2023-05-06T16:46:06.167Z,6.80
2023-05-06T16:48:09.717Z,1.25
2023-05-06T16:50:14.285Z,1.20
2023-05-06T16:52:19.738Z,1.45
2023-05-06T16:54:23.308Z,1.48
2023-05-06T16:56:36.672Z,1.50
2023-05-06T16:58:48.010Z,1.55
2023-05-06T17:00:54.507Z,1.60
2023-05-06T17:02:58.823Z,1.73
2023-05-06T17:05:02.609Z,1.40
2023-05-06T17:07:06.292Z,1.98
2023-05-06T17:09:11.450Z,1.70
2023-05-06T17:11:15.209Z,1.95
2023-05-06T17:13:19.097Z,1.67
2023-05-06T17:15:23.056Z,1.90
2023-05-06T17:17:29.014Z,1.90
2023-05-06T17:19:32.796Z,2.05
2023-05-06T17:21:36.478Z,2.00
2023-05-06T17:23:40.408Z,2.08
2023-05-06T17:25:45.915Z,3.92
2023-05-06T17:27:49.620Z,12.50
2023-05-06T17:29:53.552Z,66.45
2023-05-06T17:31:57.198Z,46.35
2023-05-06T17:34:00.789Z,9.85
2023-05-06T17:36:04.388Z,7.00
2023-05-06T17:38:08.060Z,3.67
2023-05-06T17:40:13.176Z,6.65
2023-05-06T17:42:18.707Z,11.18
2023-05-06T17:44:23.200Z,17.35
2023-05-06T17:46:30.683Z,3.42
2023-05-06T17:48:34.880Z,5.05
2023-05-06T17:50:38.593Z,1.50
2023-05-06T17:52:42.413Z,0.80
2023-05-06T17:54:49.489Z,3.75
2023-05-06T17:56:56.803Z,27.15
2023-05-06T17:59:02.801Z,1.90
2023-05-06T18:01:06.877Z,4.53
2023-05-06T18:03:11.676Z,1.30
2023-05-06T18:07:18.843Z,1.08
2023-05-06T18:09:22.533Z,1.05
2023-05-06T18:11:26.361Z,1.17
2023-05-06T18:13:30.102Z,1.17
2023-05-06T18:15:35.385Z,1.15
2023-05-06T18:17:39.179Z,67.38
2023-05-06T18:19:42.900Z,3.53
2023-05-06T18:21:47.185Z,1.13
2023-05-06T18:23:53.606Z,1.15
2023-05-06T18:26:05.346Z,0.90
2023-05-06T18:28:08.939Z,1.83
2023-05-06T18:30:13.426Z,1.13
2023-05-06T18:32:18.706Z,15.98
2023-05-06T18:34:22.826Z,2.15
2023-05-06T18:36:27.105Z,1.25
2023-05-06T18:38:31.014Z,1.10
2023-05-06T18:40:35.361Z,1.45
2023-05-06T18:42:39.786Z,1.15
2023-05-06T18:44:44.346Z,1.30
2023-05-06T18:46:49.013Z,1.30
2023-05-06T18:48:56.381Z,1.52
2023-05-06T18:51:12.255Z,1.52
2023-05-06T18:53:16.874Z,5.20
2023-05-06T18:55:20.980Z,4.05
2023-05-06T18:57:26.710Z,3.95
2023-05-06T18:59:30.940Z,1.92
2023-05-06T19:01:34.880Z,1.00
2023-05-06T19:03:40.070Z,1.58
2023-05-06T19:05:45.213Z,1.13
2023-05-06T19:07:49.373Z,1.42
2023-05-06T19:09:53.382Z,1.30
2023-05-06T19:11:56.950Z,1.40
2023-05-06T19:14:00.850Z,2.30
2023-05-06T19:16:04.632Z,1.65
2023-05-06T19:18:09.020Z,1.63
2023-05-06T19:20:14.669Z,2.00
2023-05-06T19:22:20.126Z,3.70
2023-05-06T19:24:24.180Z,3.20
2023-05-06T19:26:28.074Z,1.80
2023-05-06T19:28:32.311Z,1.83
2023-05-06T19:30:36.835Z,1.48
2023-05-06T19:32:40.817Z,1.52
2023-05-06T19:34:45.104Z,1.30
2023-05-06T19:36:48.875Z,1.45
2023-05-06T19:38:54.186Z,1.20
2023-05-06T19:40:58.007Z,1.00
2023-05-06T19:43:04.340Z,1.55
2023-05-06T19:45:09.596Z,1.23
2023-05-06T19:47:14.321Z,1.23
2023-05-06T19:49:18.212Z,1.65
2023-05-06T19:51:22.093Z,1.50
2023-05-06T19:53:25.901Z,1.27
2023-05-06T19:55:31.329Z,0.98
2023-05-06T19:57:34.943Z,1.85
2023-05-06T19:59:38.800Z,1.38
2023-05-06T20:01:42.752Z,1.50
2023-05-06T20:03:46.846Z,1.10
2023-05-06T20:05:50.579Z,0.70
2023-05-06T20:07:55.594Z,1.20
2023-05-06T20:09:59.423Z,1.48
2023-05-06T20:12:04.687Z,1.60
2023-05-06T20:14:08.470Z,1.30
2023-05-06T20:16:12.769Z,1.08
2023-05-06T20:18:16.543Z,1.20
2023-05-06T20:20:20.619Z,0.98
2023-05-06T20:22:24.375Z,1.45
2023-05-06T20:24:29.872Z,0.88
2023-05-06T20:26:34.078Z,1.60
2023-05-06T20:28:39.501Z,1.20
2023-05-06T20:30:43.501Z,1.40
2023-05-06T20:32:49.554Z,1.30
2023-05-06T20:34:55.075Z,1.30
2023-05-06T20:37:00.107Z,1.30
2023-05-06T20:39:03.652Z,1.35
2023-05-06T20:41:07.354Z,1.42
2023-05-06T20:43:11.274Z,1.90
2023-05-06T20:45:16.350Z,1.50
2023-05-06T20:47:20.085Z,3.80
2023-05-06T20:49:23.941Z,2.30
2023-05-06T20:51:29.074Z,2.30
2023-05-06T20:53:32.860Z,2.67
2023-05-06T20:55:36.740Z,2.88
2023-05-06T20:57:45.319Z,2.28
2023-05-06T20:59:51.365Z,3.78
2023-05-06T21:01:56.513Z,2.22
2023-05-06T21:04:01.586Z,2.80
2023-05-06T21:06:05.573Z,2.42
2023-05-06T21:08:09.429Z,2.75
2023-05-06T21:10:13.370Z,3.28
2023-05-06T21:12:17.340Z,3.95
2023-05-06T21:14:21.164Z,3.63
2023-05-06T21:16:25.052Z,3.10
2023-05-06T21:18:30.562Z,4.10
2023-05-06T21:20:34.744Z,4.20
2023-05-06T21:22:38.776Z,4.25
2023-05-06T21:24:42.863Z,3.55
2023-05-06T21:26:46.884Z,3.78
2023-05-06T21:28:52.585Z,3.47
2023-05-06T21:30:56.539Z,3.80
2023-05-06T21:33:03.046Z,4.07
2023-05-06T21:35:09.634Z,4.03
2023-05-06T21:37:13.615Z,4.28
2023-05-06T21:39:17.645Z,2.92
2023-05-06T21:41:21.463Z,3.45
2023-05-06T21:43:25.051Z,4.00
2023-05-06T21:45:29.371Z,5.25
2023-05-06T21:47:33.365Z,3.92
2023-05-06T21:49:37.313Z,3.15
2023-05-06T21:51:43.131Z,2.92
2023-05-06T21:53:50.838Z,3.17
2023-05-06T21:55:54.757Z,3.85
2023-05-06T21:57:58.761Z,3.13
2023-05-06T22:00:08.385Z,3.97
2023-05-06T22:02:12.646Z,4.35
2023-05-06T22:04:16.977Z,3.78
2023-05-06T22:06:20.936Z,3.80
2023-05-06T22:08:26.267Z,4.00
2023-05-06T22:10:30.068Z,4.10
2023-05-06T22:12:34.293Z,4.45
2023-05-06T22:14:41.434Z,3.42
2023-05-06T22:16:46.674Z,3.85
2023-05-06T22:18:52.094Z,3.97
2023-05-06T22:20:58.013Z,4.85
2023-05-06T22:23:02.148Z,4.32
2023-05-06T22:25:09.006Z,4.00
2023-05-06T22:27:13.608Z,4.10
2023-05-06T22:29:17.686Z,4.85
2023-05-06T22:31:22.429Z,3.60
2023-05-06T22:35:31.590Z,5.00
2023-05-06T22:37:35.449Z,4.60
2023-05-06T22:39:39.430Z,6.22
2023-05-06T22:41:44.938Z,4.68
2023-05-06T22:43:49.303Z,4.55
2023-05-06T22:45:53.404Z,4.63
2023-05-06T22:47:57.335Z,4.72
2023-05-06T22:50:01.483Z,4.25
2023-05-06T22:52:05.990Z,5.10
2023-05-06T22:54:09.954Z,4.93
2023-05-06T22:56:14.068Z,5.38
2023-05-06T22:58:20.046Z,4.80
2023-05-06T23:00:24.342Z,4.85
2023-05-06T23:02:28.769Z,3.88
2023-05-06T23:04:33.105Z,4.35
2023-05-06T23:06:36.922Z,5.35
2023-05-06T23:08:41.159Z,12.30
2023-05-06T23:10:45.196Z,3.70
2023-05-06T23:12:49.151Z,5.25
2023-05-06T23:14:54.495Z,4.50
2023-05-06T23:16:58.008Z,5.00
2023-05-06T23:19:01.694Z,4.45
2023-05-06T23:21:05.573Z,3.95
2023-05-06T23:23:10.836Z,5.13
2023-05-06T23:25:15.633Z,3.53
2023-05-06T23:27:20.143Z,2.70
2023-05-06T23:29:23.987Z,2.90
2023-05-06T23:31:29.156Z,3.47
2023-05-06T23:33:32.837Z,2.65
2023-05-06T23:35:36.669Z,2.58
2023-05-06T23:37:40.401Z,2.80
2023-05-06T23:39:44.007Z,2.70
2023-05-06T23:41:47.789Z,2.75
2023-05-06T23:43:51.361Z,2.78
2023-05-06T23:45:55.163Z,3.22
2023-05-06T23:48:00.280Z,3.60
2023-05-06T23:50:03.918Z,3.00
2023-05-06T23:52:07.727Z,2.83
2023-05-06T23:54:11.763Z,3.08
2023-05-06T23:56:15.584Z,3.85
2023-05-06T23:58:19.397Z,2.92
